sensor_id;sensor_type;location;lat;lon;timestamp;pressure;altitude;pressure_sealevel;temperature;humidity
57900;BME280;60605;53.716;19.940;2023-12-22T00:04:38;96127.76;;;3.77;100.00
57900;BME280;60605;53.716;19.940;2023-12-22T00:09:41;96120.24;;;3.80;100.00
57900;BME280;60605;53.716;19.940;2023-12-22T00:14:43;96119.29;;;3.83;100.00
57900;BME280;60605;53.716;19.940;2023-12-22T00:19:45;96118.16;;;3.87;100.00
57900;BME280;60605;53.716;19.940;2023-12-22T00:24:47;96117.70;;;3.92;100.00
57900;BME280;60605;53.716;19.940;2023-12-22T00:29:49;96117.70;;;3.97;100.00
57900;BME280;60605;53.716;19.940;2023-12-22T00:34:51;96118.49;;;4.01;100.00
57900;BME280;60605;53.716;19.940;2023-12-22T00:39:54;96113.73;;;4.07;100.00
57900;BME280;60605;53.716;19.940;2023-12-22T00:44:59;96117.52;;;4.13;100.00
57900;BME280;60605;53.716;19.940;2023-12-22T00:50:01;96118.29;;;4.19;100.00
57900;BME280;60605;53.716;19.940;2023-12-22T00:55:04;96116.65;;;4.24;100.00
57900;BME280;60605;53.716;19.940;2023-12-22T01:00:07;96112.25;;;4.29;100.00
57900;BME280;60605;53.716;19.940;2023-12-22T01:05:12;96116.76;;;4.32;100.00
57900;BME280;60605;53.716;19.940;2023-12-22T01:10:15;96120.32;;;4.37;100.00
57900;BME280;60605;53.716;19.940;2023-12-22T01:15:17;96115.55;;;4.40;100.00
57900;BME280;60605;53.716;19.940;2023-12-22T01:20:19;96109.80;;;4.41;100.00
57900;BME280;60605;53.716;19.940;2023-12-22T01:25:21;96102.23;;;4.41;100.00
57900;BME280;60605;53.716;19.940;2023-12-22T01:30:23;96101.21;;;4.40;100.00
57900;BME280;60605;53.716;19.940;2023-12-22T01:35:25;96096.23;;;4.42;100.00
57900;BME280;60605;53.716;19.940;2023-12-22T01:40:28;96092.42;;;4.44;100.00
57900;BME280;60605;53.716;19.940;2023-12-22T01:45:30;96096.48;;;4.41;100.00
57900;BME280;60605;53.716;19.940;2023-12-22T01:50:32;96098.70;;;4.38;100.00
57900;BME280;60605;53.716;19.940;2023-12-22T01:55:34;96105.77;;;4.37;100.00
57900;BME280;60605;53.716;19.940;2023-12-22T02:00:36;96110.88;;;4.35;100.00
57900;BME280;60605;53.716;19.940;2023-12-22T02:05:41;96114.84;;;4.32;100.00
57900;BME280;60605;53.716;19.940;2023-12-22T02:10:43;96113.11;;;4.28;100.00
57900;BME280;60605;53.716;19.940;2023-12-22T02:15:48;96110.88;;;4.23;100.00
57900;BME280;60605;53.716;19.940;2023-12-22T02:20:54;96098.64;;;4.19;100.00
57900;BME280;60605;53.716;19.940;2023-12-22T02:26:04;96093.38;;;4.15;100.00
57900;BME280;60605;53.716;19.940;2023-12-22T02:31:23;96089.35;;;4.11;100.00
57900;BME280;60605;53.716;19.940;2023-12-22T02:36:27;96091.41;;;4.07;100.00
57900;BME280;60605;53.716;19.940;2023-12-22T02:41:31;96088.78;;;4.03;100.00
57900;BME280;60605;53.716;19.940;2023-12-22T02:46:34;96084.66;;;3.98;100.00
57900;BME280;60605;53.716;19.940;2023-12-22T02:51:36;96085.86;;;3.90;100.00
57900;BME280;60605;53.716;19.940;2023-12-22T02:56:38;96086.50;;;3.79;100.00
57900;BME280;60605;53.716;19.940;2023-12-22T03:01:44;96097.88;;;3.70;100.00
57900;BME280;60605;53.716;19.940;2023-12-22T03:06:46;96101.05;;;3.61;100.00
57900;BME280;60605;53.716;19.940;2023-12-22T03:11:49;96101.45;;;3.53;100.00
57900;BME280;60605;53.716;19.940;2023-12-22T03:16:53;96113.29;;;3.48;100.00
57900;BME280;60605;53.716;19.940;2023-12-22T03:21:55;96118.56;;;3.43;100.00
57900;BME280;60605;53.716;19.940;2023-12-22T03:26:58;96112.80;;;3.36;100.00
57900;BME280;60605;53.716;19.940;2023-12-22T03:32:01;96118.71;;;3.28;100.00
57900;BME280;60605;53.716;19.940;2023-12-22T03:37:03;96122.95;;;3.20;100.00
57900;BME280;60605;53.716;19.940;2023-12-22T03:42:05;96137.54;;;3.13;100.00
57900;BME280;60605;53.716;19.940;2023-12-22T03:47:07;96147.52;;;3.08;100.00
57900;BME280;60605;53.716;19.940;2023-12-22T03:52:09;96145.04;;;3.04;100.00
57900;BME280;60605;53.716;19.940;2023-12-22T03:57:12;96153.76;;;2.99;100.00
57900;BME280;60605;53.716;19.940;2023-12-22T04:02:14;96158.48;;;2.94;100.00
57900;BME280;60605;53.716;19.940;2023-12-22T04:07:16;96152.40;;;2.91;100.00
57900;BME280;60605;53.716;19.940;2023-12-22T04:12:19;96158.85;;;2.88;100.00
57900;BME280;60605;53.716;19.940;2023-12-22T04:17:21;96157.89;;;2.88;100.00
57900;BME280;60605;53.716;19.940;2023-12-22T04:22:23;96164.91;;;2.88;100.00
57900;BME280;60605;53.716;19.940;2023-12-22T04:27:25;96162.55;;;2.90;100.00
57900;BME280;60605;53.716;19.940;2023-12-22T04:32:27;96153.73;;;2.90;100.00
57900;BME280;60605;53.716;19.940;2023-12-22T04:37:29;96145.85;;;2.89;100.00
57900;BME280;60605;53.716;19.940;2023-12-22T04:42:32;96154.39;;;2.87;100.00
57900;BME280;60605;53.716;19.940;2023-12-22T04:47:35;96172.73;;;2.85;100.00
57900;BME280;60605;53.716;19.940;2023-12-22T04:52:37;96164.18;;;2.83;100.00
57900;BME280;60605;53.716;19.940;2023-12-22T04:57:40;96164.72;;;2.83;100.00
57900;BME280;60605;53.716;19.940;2023-12-22T05:02:42;96163.70;;;2.84;100.00
57900;BME280;60605;53.716;19.940;2023-12-22T05:07:44;96178.09;;;2.87;100.00
57900;BME280;60605;53.716;19.940;2023-12-22T05:12:46;96186.67;;;2.88;100.00
57900;BME280;60605;53.716;19.940;2023-12-22T05:17:48;96190.69;;;2.90;100.00
57900;BME280;60605;53.716;19.940;2023-12-22T05:22:51;96190.89;;;2.91;100.00
57900;BME280;60605;53.716;19.940;2023-12-22T05:27:53;96180.31;;;2.91;100.00
57900;BME280;60605;53.716;19.940;2023-12-22T05:32:56;96174.30;;;2.91;100.00
57900;BME280;60605;53.716;19.940;2023-12-22T05:37:58;96178.29;;;2.91;100.00
57900;BME280;60605;53.716;19.940;2023-12-22T05:43:01;96182.63;;;2.90;100.00
57900;BME280;60605;53.716;19.940;2023-12-22T05:48:04;96185.13;;;2.88;100.00
57900;BME280;60605;53.716;19.940;2023-12-22T05:53:06;96181.19;;;2.88;100.00
57900;BME280;60605;53.716;19.940;2023-12-22T05:58:08;96186.62;;;2.90;100.00
57900;BME280;60605;53.716;19.940;2023-12-22T06:03:12;96188.73;;;2.94;100.00
57900;BME280;60605;53.716;19.940;2023-12-22T06:08:15;96197.79;;;2.99;100.00
57900;BME280;60605;53.716;19.940;2023-12-22T06:13:18;96198.52;;;3.04;100.00
57900;BME280;60605;53.716;19.940;2023-12-22T06:18:20;96199.31;;;3.08;100.00
57900;BME280;60605;53.716;19.940;2023-12-22T06:23:22;96202.82;;;3.10;100.00
57900;BME280;60605;53.716;19.940;2023-12-22T06:28:43;96206.23;;;3.12;100.00
57900;BME280;60605;53.716;19.940;2023-12-22T06:34:04;96215.59;;;3.13;100.00
57900;BME280;60605;53.716;19.940;2023-12-22T06:39:07;96233.69;;;3.13;100.00
57900;BME280;60605;53.716;19.940;2023-12-22T06:44:09;96238.04;;;3.14;100.00
57900;BME280;60605;53.716;19.940;2023-12-22T06:49:12;96240.75;;;3.16;100.00
57900;BME280;60605;53.716;19.940;2023-12-22T06:54:14;96243.65;;;3.15;100.00
57900;BME280;60605;53.716;19.940;2023-12-22T06:59:18;96241.11;;;3.14;100.00
57900;BME280;60605;53.716;19.940;2023-12-22T07:10:08;96264.42;;;3.18;98.35
57900;BME280;60605;53.716;19.940;2023-12-22T07:15:10;96256.70;;;3.23;97.24
57900;BME280;60605;53.716;19.940;2023-12-22T07:20:12;96248.55;;;3.31;96.18
57900;BME280;60605;53.716;19.940;2023-12-22T07:25:15;96243.33;;;3.39;95.82
57900;BME280;60605;53.716;19.940;2023-12-22T07:30:17;96256.40;;;3.53;95.26
57900;BME280;60605;53.716;19.940;2023-12-22T07:35:19;96265.52;;;3.71;94.03
57900;BME280;60605;53.716;19.940;2023-12-22T07:40:22;96266.73;;;4.12;92.09
57900;BME280;60605;53.716;19.940;2023-12-22T07:45:24;96273.30;;;5.07;90.85
57900;BME280;60605;53.716;19.940;2023-12-22T07:50:26;96280.36;;;6.31;85.14
57900;BME280;60605;53.716;19.940;2023-12-22T07:55:29;96275.59;;;7.59;81.97
57900;BME280;60605;53.716;19.940;2023-12-22T08:00:31;96274.02;;;8.48;76.15
57900;BME280;60605;53.716;19.940;2023-12-22T08:05:33;96264.89;;;9.06;71.05
57900;BME280;60605;53.716;19.940;2023-12-22T08:10:35;96260.86;;;9.08;68.11
57900;BME280;60605;53.716;19.940;2023-12-22T08:15:38;96256.25;;;9.09;67.06
57900;BME280;60605;53.716;19.940;2023-12-22T08:20:40;96261.36;;;8.70;65.76
57900;BME280;60605;53.716;19.940;2023-12-22T08:25:46;96269.55;;;7.66;67.92
57900;BME280;60605;53.716;19.940;2023-12-22T08:30:48;96268.23;;;7.68;69.58
57900;BME280;60605;53.716;19.940;2023-12-22T08:35:50;96280.18;;;8.00;67.36
57900;BME280;60605;53.716;19.940;2023-12-22T08:40:54;96288.81;;;7.09;68.59
57900;BME280;60605;53.716;19.940;2023-12-22T08:46:00;96290.77;;;6.28;71.25
57900;BME280;60605;53.716;19.940;2023-12-22T08:51:02;96286.73;;;5.69;74.05
57900;BME280;60605;53.716;19.940;2023-12-22T08:56:05;96293.06;;;6.32;76.12
57900;BME280;60605;53.716;19.940;2023-12-22T09:01:16;96287.05;;;7.04;75.17
57900;BME280;60605;53.716;19.940;2023-12-22T09:06:20;96287.30;;;7.70;73.96
57900;BME280;60605;53.716;19.940;2023-12-22T09:11:24;96277.08;;;9.19;71.84
57900;BME280;60605;53.716;19.940;2023-12-22T09:16:27;96277.70;;;9.51;69.06
57900;BME280;60605;53.716;19.940;2023-12-22T09:21:30;96285.23;;;8.43;69.50
57900;BME280;60605;53.716;19.940;2023-12-22T09:26:32;96289.06;;;7.13;71.90
57900;BME280;60605;53.716;19.940;2023-12-22T09:31:35;96286.15;;;6.13;75.33
57900;BME280;60605;53.716;19.940;2023-12-22T09:36:37;96283.91;;;5.36;77.98
57900;BME280;60605;53.716;19.940;2023-12-22T09:41:39;96270.20;;;4.82;80.18
57900;BME280;60605;53.716;19.940;2023-12-22T09:46:42;96261.33;;;4.57;82.17
57900;BME280;60605;53.716;19.940;2023-12-22T09:51:45;96253.71;;;4.41;83.44
57900;BME280;60605;53.716;19.940;2023-12-22T09:56:50;96238.98;;;4.29;84.64
57900;BME280;60605;53.716;19.940;2023-12-22T10:01:54;96230.98;;;4.26;84.90
57900;BME280;60605;53.716;19.940;2023-12-22T10:06:58;96217.27;;;4.23;84.22
57900;BME280;60605;53.716;19.940;2023-12-22T10:12:04;96205.42;;;4.20;84.57
57900;BME280;60605;53.716;19.940;2023-12-22T10:17:07;96208.46;;;4.09;84.43
57900;BME280;60605;53.716;19.940;2023-12-22T10:22:11;96197.77;;;3.88;85.34
57900;BME280;60605;53.716;19.940;2023-12-22T10:27:14;96192.02;;;3.71;86.18
57900;BME280;60605;53.716;19.940;2023-12-22T10:32:18;96183.85;;;3.60;86.89
57900;BME280;60605;53.716;19.940;2023-12-22T10:37:21;96177.11;;;3.52;87.82
57900;BME280;60605;53.716;19.940;2023-12-22T10:42:24;96159.42;;;3.49;88.70
57900;BME280;60605;53.716;19.940;2023-12-22T10:47:28;96148.44;;;3.48;89.53
57900;BME280;60605;53.716;19.940;2023-12-22T10:52:30;96152.73;;;3.47;90.45
57900;BME280;60605;53.716;19.940;2023-12-22T10:57:32;96160.35;;;3.43;91.54
57900;BME280;60605;53.716;19.940;2023-12-22T11:02:42;96154.59;;;3.36;92.45
57900;BME280;60605;53.716;19.940;2023-12-22T11:07:49;96143.80;;;3.30;93.33
57900;BME280;60605;53.716;19.940;2023-12-22T11:12:53;96134.48;;;3.26;94.55
57900;BME280;60605;53.716;19.940;2023-12-22T11:17:56;96137.85;;;3.18;95.84
57900;BME280;60605;53.716;19.940;2023-12-22T11:23:00;96127.15;;;3.07;97.30
57900;BME280;60605;53.716;19.940;2023-12-22T11:28:05;96116.64;;;3.00;98.78
57900;BME280;60605;53.716;19.940;2023-12-22T11:33:09;96116.95;;;2.95;99.58
57900;BME280;60605;53.716;19.940;2023-12-22T11:38:13;96115.20;;;2.89;99.98
57900;BME280;60605;53.716;19.940;2023-12-22T11:43:16;96115.17;;;2.82;100.00
57900;BME280;60605;53.716;19.940;2023-12-22T11:48:20;96112.91;;;2.74;100.00
57900;BME280;60605;53.716;19.940;2023-12-22T11:53:25;96103.86;;;2.66;100.00
57900;BME280;60605;53.716;19.940;2023-12-22T11:58:38;96093.43;;;2.58;100.00
57900;BME280;60605;53.716;19.940;2023-12-22T12:03:42;96088.36;;;2.49;100.00
57900;BME280;60605;53.716;19.940;2023-12-22T12:08:49;96097.02;;;2.37;100.00
57900;BME280;60605;53.716;19.940;2023-12-22T12:13:54;96097.06;;;2.29;100.00
57900;BME280;60605;53.716;19.940;2023-12-22T12:18:58;96086.06;;;2.24;100.00
57900;BME280;60605;53.716;19.940;2023-12-22T12:24:00;96089.88;;;2.22;100.00
57900;BME280;60605;53.716;19.940;2023-12-22T12:29:02;96096.45;;;2.22;100.00
57900;BME280;60605;53.716;19.940;2023-12-22T12:34:05;96102.30;;;2.23;100.00
57900;BME280;60605;53.716;19.940;2023-12-22T12:39:08;96094.30;;;2.23;100.00
57900;BME280;60605;53.716;19.940;2023-12-22T12:44:11;96106.56;;;2.22;100.00
57900;BME280;60605;53.716;19.940;2023-12-22T12:49:14;96106.45;;;2.21;100.00
57900;BME280;60605;53.716;19.940;2023-12-22T12:54:17;96105.51;;;2.20;100.00
57900;BME280;60605;53.716;19.940;2023-12-22T12:59:20;96099.13;;;2.20;100.00
57900;BME280;60605;53.716;19.940;2023-12-22T13:04:22;96116.08;;;2.19;100.00
57900;BME280;60605;53.716;19.940;2023-12-22T13:09:31;96115.95;;;2.16;100.00
57900;BME280;60605;53.716;19.940;2023-12-22T13:14:34;96112.13;;;2.08;100.00
57900;BME280;60605;53.716;19.940;2023-12-22T13:19:36;96111.15;;;2.01;100.00
57900;BME280;60605;53.716;19.940;2023-12-22T13:24:39;96119.06;;;1.96;100.00
57900;BME280;60605;53.716;19.940;2023-12-22T13:29:45;96123.50;;;1.92;100.00
57900;BME280;60605;53.716;19.940;2023-12-22T13:34:50;96117.12;;;1.85;100.00
57900;BME280;60605;53.716;19.940;2023-12-22T13:39:52;96112.45;;;1.78;100.00
57900;BME280;60605;53.716;19.940;2023-12-22T13:44:54;96129.80;;;1.72;100.00
57900;BME280;60605;53.716;19.940;2023-12-22T13:49:57;96133.20;;;1.66;100.00
57900;BME280;60605;53.716;19.940;2023-12-22T13:55:11;96141.86;;;1.60;100.00
57900;BME280;60605;53.716;19.940;2023-12-22T14:05:22;96147.48;;;1.51;100.00
57900;BME280;60605;53.716;19.940;2023-12-22T14:10:24;96150.51;;;1.49;100.00
57900;BME280;60605;53.716;19.940;2023-12-22T14:15:27;96158.38;;;1.50;100.00
57900;BME280;60605;53.716;19.940;2023-12-22T14:20:45;96155.21;;;1.50;100.00
57900;BME280;60605;53.716;19.940;2023-12-22T14:25:48;96159.55;;;1.50;100.00
57900;BME280;60605;53.716;19.940;2023-12-22T14:30:51;96161.98;;;1.52;100.00
57900;BME280;60605;53.716;19.940;2023-12-22T14:35:53;96167.51;;;1.54;100.00
57900;BME280;60605;53.716;19.940;2023-12-22T14:40:56;96175.52;;;1.56;100.00
57900;BME280;60605;53.716;19.940;2023-12-22T14:45:59;96176.14;;;1.58;100.00
57900;BME280;60605;53.716;19.940;2023-12-22T14:51:02;96175.12;;;1.60;100.00
57900;BME280;60605;53.716;19.940;2023-12-22T14:56:05;96185.92;;;1.62;100.00
57900;BME280;60605;53.716;19.940;2023-12-22T15:01:11;96188.89;;;1.64;100.00
57900;BME280;60605;53.716;19.940;2023-12-22T15:06:14;96192.67;;;1.64;100.00
57900;BME280;60605;53.716;19.940;2023-12-22T15:11:16;96205.54;;;1.65;100.00
57900;BME280;60605;53.716;19.940;2023-12-22T15:16:19;96213.29;;;1.66;100.00
57900;BME280;60605;53.716;19.940;2023-12-22T15:21:24;96222.21;;;1.64;100.00
57900;BME280;60605;53.716;19.940;2023-12-22T15:26:26;96229.23;;;1.65;100.00
57900;BME280;60605;53.716;19.940;2023-12-22T15:31:29;96233.70;;;1.64;100.00
57900;BME280;60605;53.716;19.940;2023-12-22T15:36:35;96239.09;;;1.64;100.00
57900;BME280;60605;53.716;19.940;2023-12-22T15:41:37;96245.09;;;1.65;100.00
57900;BME280;60605;53.716;19.940;2023-12-22T15:46:40;96250.98;;;1.68;100.00
57900;BME280;60605;53.716;19.940;2023-12-22T15:51:42;96251.46;;;1.73;100.00
57900;BME280;60605;53.716;19.940;2023-12-22T15:56:44;96253.72;;;1.79;100.00
57900;BME280;60605;53.716;19.940;2023-12-22T16:01:46;96256.78;;;1.83;100.00
57900;BME280;60605;53.716;19.940;2023-12-22T16:06:49;96266.48;;;1.85;100.00
57900;BME280;60605;53.716;19.940;2023-12-22T16:11:51;96269.23;;;1.86;100.00
57900;BME280;60605;53.716;19.940;2023-12-22T16:16:55;96281.98;;;1.85;100.00
57900;BME280;60605;53.716;19.940;2023-12-22T16:22:00;96284.90;;;1.83;100.00
57900;BME280;60605;53.716;19.940;2023-12-22T16:27:03;96291.45;;;1.78;100.00
57900;BME280;60605;53.716;19.940;2023-12-22T16:32:06;96299.35;;;1.76;100.00
57900;BME280;60605;53.716;19.940;2023-12-22T16:37:09;96311.48;;;1.73;100.00
57900;BME280;60605;53.716;19.940;2023-12-22T16:42:12;96323.52;;;1.71;100.00
57900;BME280;60605;53.716;19.940;2023-12-22T16:47:15;96332.88;;;1.68;100.00
57900;BME280;60605;53.716;19.940;2023-12-22T16:52:18;96341.57;;;1.65;100.00
57900;BME280;60605;53.716;19.940;2023-12-22T16:57:21;96353.63;;;1.60;100.00
57900;BME280;60605;53.716;19.940;2023-12-22T17:02:23;96364.52;;;1.56;100.00
57900;BME280;60605;53.716;19.940;2023-12-22T17:07:35;96378.58;;;1.53;100.00
57900;BME280;60605;53.716;19.940;2023-12-22T17:12:41;96382.33;;;1.51;100.00
57900;BME280;60605;53.716;19.940;2023-12-22T17:17:43;96386.28;;;1.49;100.00
57900;BME280;60605;53.716;19.940;2023-12-22T17:22:46;96399.30;;;1.47;100.00
57900;BME280;60605;53.716;19.940;2023-12-22T17:27:50;96405.74;;;1.48;100.00
57900;BME280;60605;53.716;19.940;2023-12-22T17:32:54;96413.33;;;1.48;100.00
57900;BME280;60605;53.716;19.940;2023-12-22T17:37:57;96426.44;;;1.48;100.00
57900;BME280;60605;53.716;19.940;2023-12-22T17:43:05;96439.20;;;1.52;100.00
57900;BME280;60605;53.716;19.940;2023-12-22T17:48:08;96447.18;;;1.55;100.00
57900;BME280;60605;53.716;19.940;2023-12-22T17:53:12;96454.56;;;1.59;100.00
57900;BME280;60605;53.716;19.940;2023-12-22T17:58:14;96462.19;;;1.59;100.00
57900;BME280;60605;53.716;19.940;2023-12-22T18:03:17;96463.81;;;1.56;100.00
57900;BME280;60605;53.716;19.940;2023-12-22T18:08:19;96469.38;;;1.55;100.00
57900;BME280;60605;53.716;19.940;2023-12-22T18:13:21;96475.11;;;1.57;100.00
57900;BME280;60605;53.716;19.940;2023-12-22T18:18:24;96480.65;;;1.59;100.00
57900;BME280;60605;53.716;19.940;2023-12-22T18:23:27;96482.63;;;1.63;100.00
57900;BME280;60605;53.716;19.940;2023-12-22T18:28:29;96493.77;;;1.66;100.00
57900;BME280;60605;53.716;19.940;2023-12-22T18:33:32;96496.52;;;1.68;100.00
57900;BME280;60605;53.716;19.940;2023-12-22T18:38:34;96496.80;;;1.67;100.00
57900;BME280;60605;53.716;19.940;2023-12-22T18:43:36;96505.15;;;1.63;100.00
57900;BME280;60605;53.716;19.940;2023-12-22T18:48:43;96515.27;;;1.56;100.00
57900;BME280;60605;53.716;19.940;2023-12-22T18:53:46;96525.16;;;1.53;100.00
57900;BME280;60605;53.716;19.940;2023-12-22T18:58:49;96526.42;;;1.51;100.00
57900;BME280;60605;53.716;19.940;2023-12-22T19:03:51;96530.13;;;1.50;100.00
57900;BME280;60605;53.716;19.940;2023-12-22T19:08:54;96537.59;;;1.45;100.00
57900;BME280;60605;53.716;19.940;2023-12-22T19:13:56;96534.98;;;1.39;100.00
57900;BME280;60605;53.716;19.940;2023-12-22T19:18:59;96545.36;;;1.36;100.00
57900;BME280;60605;53.716;19.940;2023-12-22T19:24:02;96553.27;;;1.36;100.00
57900;BME280;60605;53.716;19.940;2023-12-22T19:29:05;96563.45;;;1.39;100.00
57900;BME280;60605;53.716;19.940;2023-12-22T19:34:09;96562.91;;;1.41;100.00
57900;BME280;60605;53.716;19.940;2023-12-22T19:39:13;96569.78;;;1.39;100.00
57900;BME280;60605;53.716;19.940;2023-12-22T19:44:16;96585.48;;;1.37;100.00
57900;BME280;60605;53.716;19.940;2023-12-22T19:49:18;96588.62;;;1.38;100.00
57900;BME280;60605;53.716;19.940;2023-12-22T19:54:25;96602.12;;;1.38;100.00
57900;BME280;60605;53.716;19.940;2023-12-22T19:59:27;96602.95;;;1.40;100.00
57900;BME280;60605;53.716;19.940;2023-12-22T20:04:29;96606.84;;;1.42;100.00
57900;BME280;60605;53.716;19.940;2023-12-22T20:09:31;96615.60;;;1.45;100.00
57900;BME280;60605;53.716;19.940;2023-12-22T20:14:34;96626.34;;;1.48;100.00
57900;BME280;60605;53.716;19.940;2023-12-22T20:19:37;96634.02;;;1.50;100.00
57900;BME280;60605;53.716;19.940;2023-12-22T20:24:40;96641.79;;;1.48;100.00
57900;BME280;60605;53.716;19.940;2023-12-22T20:29:42;96653.46;;;1.41;100.00
57900;BME280;60605;53.716;19.940;2023-12-22T20:34:45;96655.58;;;1.34;100.00
57900;BME280;60605;53.716;19.940;2023-12-22T20:39:52;96654.14;;;1.29;100.00
57900;BME280;60605;53.716;19.940;2023-12-22T20:44:55;96656.41;;;1.27;100.00
57900;BME280;60605;53.716;19.940;2023-12-22T20:50:02;96655.42;;;1.25;100.00
57900;BME280;60605;53.716;19.940;2023-12-22T20:55:07;96661.02;;;1.25;100.00
57900;BME280;60605;53.716;19.940;2023-12-22T21:00:12;96666.90;;;1.26;100.00
57900;BME280;60605;53.716;19.940;2023-12-22T21:05:15;96667.28;;;1.27;100.00
57900;BME280;60605;53.716;19.940;2023-12-22T21:10:18;96667.71;;;1.29;100.00
57900;BME280;60605;53.716;19.940;2023-12-22T21:15:20;96668.90;;;1.32;100.00
57900;BME280;60605;53.716;19.940;2023-12-22T21:20:23;96663.83;;;1.35;100.00
57900;BME280;60605;53.716;19.940;2023-12-22T21:25:26;96665.70;;;1.35;100.00
57900;BME280;60605;53.716;19.940;2023-12-22T21:30:28;96670.23;;;1.36;100.00
57900;BME280;60605;53.716;19.940;2023-12-22T21:35:31;96672.35;;;1.35;100.00
57900;BME280;60605;53.716;19.940;2023-12-22T21:40:34;96676.63;;;1.37;100.00
57900;BME280;60605;53.716;19.940;2023-12-22T21:45:36;96683.31;;;1.40;100.00
57900;BME280;60605;53.716;19.940;2023-12-22T21:50:42;96682.68;;;1.42;100.00
57900;BME280;60605;53.716;19.940;2023-12-22T21:55:45;96680.27;;;1.43;100.00
57900;BME280;60605;53.716;19.940;2023-12-22T22:00:47;96685.13;;;1.43;100.00
57900;BME280;60605;53.716;19.940;2023-12-22T22:05:50;96690.45;;;1.43;100.00
57900;BME280;60605;53.716;19.940;2023-12-22T22:10:53;96698.77;;;1.42;100.00
57900;BME280;60605;53.716;19.940;2023-12-22T22:15:55;96701.38;;;1.41;100.00
57900;BME280;60605;53.716;19.940;2023-12-22T22:20:58;96711.92;;;1.38;100.00
57900;BME280;60605;53.716;19.940;2023-12-22T22:26:00;96715.40;;;1.37;100.00
57900;BME280;60605;53.716;19.940;2023-12-22T22:31:07;96724.59;;;1.37;100.00
57900;BME280;60605;53.716;19.940;2023-12-22T22:36:16;96723.02;;;1.37;100.00
57900;BME280;60605;53.716;19.940;2023-12-22T22:41:26;96723.45;;;1.36;100.00
57900;BME280;60605;53.716;19.940;2023-12-22T22:46:40;96728.61;;;1.37;100.00
57900;BME280;60605;53.716;19.940;2023-12-22T22:51:51;96728.39;;;1.39;100.00
57900;BME280;60605;53.716;19.940;2023-12-22T22:56:57;96732.05;;;1.40;100.00
57900;BME280;60605;53.716;19.940;2023-12-22T23:02:05;96734.16;;;1.39;100.00
57900;BME280;60605;53.716;19.940;2023-12-22T23:07:15;96733.16;;;1.40;100.00
57900;BME280;60605;53.716;19.940;2023-12-22T23:12:23;96744.92;;;1.43;100.00
57900;BME280;60605;53.716;19.940;2023-12-22T23:17:42;96745.04;;;1.46;100.00
57900;BME280;60605;53.716;19.940;2023-12-22T23:22:56;96751.09;;;1.49;100.00
57900;BME280;60605;53.716;19.940;2023-12-22T23:28:05;96756.16;;;1.49;100.00
57900;BME280;60605;53.716;19.940;2023-12-22T23:33:14;96758.25;;;1.47;100.00
57900;BME280;60605;53.716;19.940;2023-12-22T23:38:31;96761.48;;;1.46;100.00
57900;BME280;60605;53.716;19.940;2023-12-22T23:43:34;96770.52;;;1.42;100.00
57900;BME280;60605;53.716;19.940;2023-12-22T23:48:45;96785.06;;;1.41;100.00
57900;BME280;60605;53.716;19.940;2023-12-22T23:53:52;96797.89;;;1.40;100.00
57900;BME280;60605;53.716;19.940;2023-12-22T23:59:01;96810.73;;;1.38;100.00
